Time;durP1;ratioP1;P1;durP2;ratioP2;P2;SDS_P1;SDS_P2;PMS_P1;PMS_P2;Temp;Humidity;BMP_temperature;BMP_pressure;BME280_temperature;BME280_humidity;BME280_pressure;Samples;Min_cycle;Max_cycle;Signal;HPM_P1;HPM_P2
2023/04/10 00:02:08;;;;;;;2.23;2.03;;;19.30;43.70;;;;;;5016453;28;20219;-62
2023/04/10 00:04:34;;;;;;;2.47;2.37;;;19.30;43.80;;;;;;5011390;28;20309;-62
2023/04/10 00:06:59;;;;;;;4.03;1.97;;;19.30;43.90;;;;;;5012161;28;20222;-62
2023/04/10 00:09:26;;;;;;;3.03;2.83;;;19.30;43.90;;;;;;5015976;28;20230;-62
2023/04/10 00:11:51;;;;;;;2.17;2.07;;;19.30;44.10;;;;;;5014005;28;20245;-62
2023/04/10 00:14:22;;;;;;;2.40;2.30;;;19.30;43.90;;;;;;5010465;28;20560;-63
2023/04/10 00:16:48;;;;;;;2.33;2.23;;;19.30;44.00;;;;;;5017844;28;20328;-62
2023/04/10 00:19:14;;;;;;;2.70;2.50;;;19.30;44.00;;;;;;5015867;28;20464;-62
2023/04/10 00:21:40;;;;;;;2.57;2.47;;;19.20;43.80;;;;;;5014432;28;20511;-61
2023/04/10 00:24:05;;;;;;;2.00;1.90;;;19.30;44.00;;;;;;5016337;28;20961;-62
2023/04/10 00:26:31;;;;;;;2.57;2.47;;;19.30;44.00;;;;;;5017293;28;20216;-62
2023/04/10 00:28:56;;;;;;;3.40;2.63;;;19.30;44.00;;;;;;5009887;28;20364;-62
2023/04/10 00:31:22;;;;;;;2.23;2.13;;;19.30;44.00;;;;;;5010343;28;20233;-63
2023/04/10 00:33:47;;;;;;;2.20;2.10;;;19.20;43.90;;;;;;5019377;28;20678;-63
2023/04/10 00:36:13;;;;;;;2.73;2.53;;;19.30;44.00;;;;;;5015937;28;20217;-63
2023/04/10 00:38:38;;;;;;;2.10;2.00;;;19.30;44.10;;;;;;5019019;28;20221;-62
2023/04/10 00:41:05;;;;;;;3.20;2.47;;;19.30;44.10;;;;;;5017123;28;20230;-62
2023/04/10 00:43:30;;;;;;;2.50;2.37;;;19.30;44.00;;;;;;5016322;28;20214;-64
2023/04/10 00:45:56;;;;;;;2.73;2.53;;;19.20;44.00;;;;;;5021015;28;20521;-62
2023/04/10 00:48:21;;;;;;;2.27;2.07;;;19.30;44.10;;;;;;5019694;28;20227;-62
2023/04/10 00:50:47;;;;;;;2.43;2.33;;;19.30;44.00;;;;;;5019098;28;20246;-62
2023/04/10 00:53:13;;;;;;;2.33;2.20;;;19.30;44.10;;;;;;5016270;28;20249;-62
2023/04/10 00:55:40;;;;;;;2.00;1.90;;;19.30;44.10;;;;;;5019830;28;20789;-62
2023/04/10 00:58:05;;;;;;;2.50;2.30;;;19.20;44.00;;;;;;5013077;28;20475;-62
2023/04/10 01:00:31;;;;;;;2.47;2.37;;;19.20;43.90;;;;;;5015944;28;21098;-62
2023/04/10 01:02:59;;;;;;;2.20;2.10;;;19.20;44.00;;;;;;5017905;28;20313;-62
2023/04/10 01:05:31;;;;;;;2.27;2.17;;;19.20;44.80;;;;;;5011438;28;20238;-63
2023/04/10 01:08:10;;;;;;;2.70;2.60;;;19.30;44.10;;;;;;5018486;28;20456;-62
2023/04/10 01:11:00;;;;;;;2.03;1.93;;;19.30;44.10;;;;;;5018180;28;20569;-62
2023/04/10 01:13:42;;;;;;;2.63;2.50;;;19.20;44.00;;;;;;5017929;28;20431;-62
2023/04/10 01:16:12;;;;;;;1.97;1.87;;;19.30;44.10;;;;;;5018136;28;21107;-63
2023/04/10 01:18:45;;;;;;;2.10;2.00;;;19.30;44.10;;;;;;5017017;28;20529;-62
2023/04/10 01:21:12;;;;;;;2.43;2.33;;;19.30;44.10;;;;;;5017803;28;20445;-62
2023/04/10 01:23:59;;;;;;;2.27;2.17;;;19.30;44.10;;;;;;5018188;28;20455;-62
2023/04/10 01:27:04;;;;;;;2.47;2.27;;;19.30;44.10;;;;;;5021172;28;20942;-62
2023/04/10 01:29:32;;;;;;;2.03;1.93;;;19.20;44.00;;;;;;5015879;28;20802;-63
2023/04/10 01:32:07;;;;;;;2.00;1.90;;;19.20;44.00;;;;;;5020288;28;20952;-62
2023/04/10 01:34:44;;;;;;;2.13;2.03;;;19.30;44.10;;;;;;5010172;28;20459;-62
2023/04/10 01:37:15;;;;;;;2.50;2.30;;;19.30;44.10;;;;;;5017122;28;20442;-62
2023/04/10 01:39:42;;;;;;;2.10;2.00;;;19.30;44.10;;;;;;5018701;28;20442;-63
2023/04/10 01:42:10;;;;;;;1.90;1.80;;;19.20;44.00;;;;;;5019347;28;20438;-62
2023/04/10 01:44:40;;;;;;;2.40;2.30;;;19.20;44.00;;;;;;5021213;28;20489;-63
2023/04/10 01:47:07;;;;;;;2.40;2.30;;;19.20;43.90;;;;;;5020845;28;20470;-62
2023/04/10 01:49:34;;;;;;;2.20;2.10;;;19.20;44.00;;;;;;5018895;28;20450;-62
2023/04/10 01:52:01;;;;;;;2.33;2.23;;;19.20;44.00;;;;;;5021976;28;20460;-62
2023/04/10 01:54:27;;;;;;;2.20;2.10;;;19.30;44.10;;;;;;5020948;28;20426;-62
2023/04/10 01:56:53;;;;;;;2.10;2.00;;;19.20;44.00;;;;;;5017821;28;20428;-62
2023/04/10 01:59:19;;;;;;;2.20;2.10;;;19.20;44.00;;;;;;5020155;28;20737;-62
2023/04/10 02:01:45;;;;;;;2.37;2.27;;;19.20;44.00;;;;;;5020618;28;20273;-62
2023/04/10 02:04:10;;;;;;;2.60;2.40;;;19.20;44.00;;;;;;5017066;28;20896;-62
2023/04/10 02:06:41;;;;;;;2.30;2.20;;;19.20;44.00;;;;;;5016097;28;20207;-62
2023/04/10 02:09:22;;;;;;;2.40;2.30;;;19.20;44.00;;;;;;5008295;28;20333;-63
2023/04/10 02:11:54;;;;;;;2.00;1.90;;;19.20;44.00;;;;;;5013115;28;20437;-62
2023/04/10 02:14:22;;;;;;;2.70;2.50;;;19.30;44.10;;;;;;5009063;28;20470;-61
2023/04/10 02:16:52;;;;;;;2.50;2.40;;;19.30;44.10;;;;;;5016266;28;20545;-62
2023/04/10 02:19:19;;;;;;;2.43;2.33;;;19.20;44.00;;;;;;5018590;28;20456;-62
2023/04/10 02:21:46;;;;;;;2.20;2.00;;;19.20;44.00;;;;;;5016218;28;20471;-62
2023/04/10 02:24:12;;;;;;;2.23;2.13;;;19.30;44.10;;;;;;5016886;28;20522;-62
2023/04/10 02:26:48;;;;;;;2.37;2.27;;;19.20;44.00;;;;;;5016363;28;20468;-62
2023/04/10 02:29:14;;;;;;;2.17;2.07;;;19.20;44.00;;;;;;5011853;28;20222;-62
2023/04/10 02:31:40;;;;;;;2.30;2.10;;;19.20;44.00;;;;;;5014072;28;21377;-62
2023/04/10 02:34:06;;;;;;;2.30;2.20;;;19.20;44.00;;;;;;5012281;28;20314;-62
2023/04/10 02:36:34;;;;;;;2.33;2.23;;;19.20;44.00;;;;;;5016624;28;20443;-62
2023/04/10 02:38:59;;;;;;;2.40;2.20;;;19.20;44.00;;;;;;5014523;28;20235;-62
2023/04/10 02:41:25;;;;;;;2.30;2.20;;;19.20;44.00;;;;;;5016056;28;20545;-62
2023/04/10 02:43:51;;;;;;;2.13;2.03;;;19.20;44.00;;;;;;5013838;28;20229;-62
2023/04/10 02:46:16;;;;;;;2.20;2.10;;;19.20;44.00;;;;;;5018973;28;20238;-62
2023/04/10 02:48:42;;;;;;;2.10;2.00;;;19.20;44.00;;;;;;5018667;28;20215;-62
2023/04/10 02:51:07;;;;;;;2.10;2.00;;;19.20;44.80;;;;;;5017788;28;20717;-62
2023/04/10 02:53:33;;;;;;;2.40;2.30;;;19.20;44.00;;;;;;5016527;28;20753;-62
2023/04/10 02:55:58;;;;;;;2.03;1.93;;;19.20;44.00;;;;;;5010387;28;20226;-62
2023/04/10 02:58:24;;;;;;;2.03;1.93;;;19.20;44.00;;;;;;5019228;28;20223;-62
2023/04/10 03:00:50;;;;;;;2.50;2.40;;;19.20;44.00;;;;;;5009875;28;20857;-63
2023/04/10 03:03:18;;;;;;;2.57;2.47;;;19.20;44.00;;;;;;5019088;28;20306;-62
2023/04/10 03:05:45;;;;;;;2.43;2.33;;;19.20;44.00;;;;;;5009766;28;20435;-62
2023/04/10 03:08:12;;;;;;;2.30;2.20;;;19.20;44.00;;;;;;5012182;28;20545;-62
2023/04/10 03:10:37;;;;;;;2.50;2.40;;;19.20;44.00;;;;;;5015508;28;20456;-62
2023/04/10 03:13:03;;;;;;;2.30;2.20;;;19.20;44.00;;;;;;5016426;28;21030;-62
2023/04/10 03:15:28;;;;;;;2.70;2.60;;;19.20;44.00;;;;;;5018008;28;20223;-62
2023/04/10 03:17:54;;;;;;;2.33;2.23;;;19.20;44.00;;;;;;5012389;28;20226;-62
2023/04/10 03:20:20;;;;;;;2.17;2.07;;;19.20;44.00;;;;;;5014031;28;20258;-61
2023/04/10 03:22:45;;;;;;;2.10;2.00;;;19.20;44.00;;;;;;5013677;28;20241;-62
2023/04/10 03:25:11;;;;;;;2.20;2.10;;;19.20;44.00;;;;;;5012371;28;20238;-62
2023/04/10 03:27:37;;;;;;;2.33;2.23;;;19.20;44.00;;;;;;5012031;28;20277;-62
2023/04/10 03:30:03;;;;;;;2.30;2.20;;;19.20;44.70;;;;;;5016216;28;20226;-62
2023/04/10 03:32:30;;;;;;;2.70;2.50;;;19.20;44.00;;;;;;5013350;28;20468;-62
2023/04/10 03:34:56;;;;;;;2.33;2.23;;;19.20;44.00;;;;;;5016197;28;20652;-62
2023/04/10 03:37:21;;;;;;;2.40;2.30;;;19.20;44.00;;;;;;5014514;28;20487;-62
2023/04/10 03:39:47;;;;;;;2.30;2.20;;;19.20;44.00;;;;;;5018787;28;20959;-62
2023/04/10 03:42:12;;;;;;;2.33;2.23;;;19.20;44.00;;;;;;5017378;28;20219;-62
2023/04/10 03:44:38;;;;;;;2.33;2.23;;;19.20;44.00;;;;;;5005160;28;20778;-62
2023/04/10 03:47:03;;;;;;;2.33;2.23;;;19.20;44.80;;;;;;5013202;28;20305;-61
2023/04/10 03:49:29;;;;;;;2.87;2.70;;;19.20;44.00;;;;;;5013526;28;20238;-62
2023/04/10 03:51:55;;;;;;;2.30;2.20;;;19.20;44.00;;;;;;5013313;28;20698;-62
2023/04/10 03:54:20;;;;;;;2.37;2.27;;;19.20;44.00;;;;;;5012441;28;20242;-62
2023/04/10 03:56:46;;;;;;;2.60;2.50;;;19.20;44.00;;;;;;5018617;28;20666;-63
2023/04/10 03:59:11;;;;;;;2.40;2.20;;;19.20;44.00;;;;;;5009397;28;20222;-62
2023/04/10 04:01:38;;;;;;;2.67;2.47;;;19.20;44.00;;;;;;5011485;28;20325;-62
2023/04/10 04:04:04;;;;;;;2.40;2.30;;;19.20;44.00;;;;;;5010896;28;20324;-62
2023/04/10 04:06:30;;;;;;;2.40;2.30;;;19.20;44.00;;;;;;5014006;28;20447;-63
2023/04/10 04:08:55;;;;;;;2.57;2.47;;;19.20;44.00;;;;;;5009828;28;20471;-62
2023/04/10 04:11:21;;;;;;;2.10;2.00;;;19.20;44.00;;;;;;5012814;28;20223;-62
2023/04/10 04:13:46;;;;;;;2.40;2.30;;;19.20;44.00;;;;;;5009442;28;20233;-62
2023/04/10 04:16:12;;;;;;;2.93;2.73;;;19.20;44.00;;;;;;5011122;28;20786;-62
2023/04/10 04:18:37;;;;;;;2.17;2.07;;;19.20;44.00;;;;;;5013533;28;20226;-61
2023/04/10 04:21:03;;;;;;;2.70;2.60;;;19.20;44.00;;;;;;5013659;28;20588;-62
2023/04/10 04:23:29;;;;;;;2.50;2.40;;;19.20;44.00;;;;;;5015398;28;20238;-62
2023/04/10 04:25:55;;;;;;;2.53;2.43;;;19.20;44.00;;;;;;5015508;28;20243;-62
2023/04/10 04:28:21;;;;;;;2.40;2.30;;;19.20;44.00;;;;;;5013218;28;20230;-62
2023/04/10 04:30:47;;;;;;;2.67;2.57;;;19.20;44.00;;;;;;5012094;28;20497;-62
2023/04/10 04:33:13;;;;;;;3.00;2.80;;;19.20;44.00;;;;;;5013884;28;20218;-62
2023/04/10 04:35:38;;;;;;;2.80;2.60;;;19.20;44.00;;;;;;5015089;28;20230;-62
2023/04/10 04:38:04;;;;;;;2.67;2.57;;;19.20;44.00;;;;;;5012013;28;20226;-62
2023/04/10 04:40:30;;;;;;;2.67;2.53;;;19.20;44.00;;;;;;5008816;28;20222;-62
2023/04/10 04:42:55;;;;;;;2.97;2.77;;;19.20;44.00;;;;;;5012398;28;20223;-62
2023/04/10 04:45:21;;;;;;;3.17;2.97;;;19.20;43.90;;;;;;5012615;28;20789;-61
2023/04/10 04:47:47;;;;;;;2.37;2.27;;;19.20;44.00;;;;;;5016662;28;20229;-62
2023/04/10 04:50:12;;;;;;;2.87;2.67;;;19.20;44.00;;;;;;5012489;28;20214;-62
2023/04/10 04:52:38;;;;;;;2.73;2.57;;;19.20;44.00;;;;;;5012502;28;20396;-62
2023/04/10 04:55:04;;;;;;;2.60;2.40;;;19.20;44.00;;;;;;5015131;28;20609;-62
2023/04/10 04:57:29;;;;;;;2.90;2.70;;;19.20;43.90;;;;;;5014282;28;20828;-62
2023/04/10 04:59:55;;;;;;;2.50;2.40;;;19.30;44.10;;;;;;5014538;28;20307;-62
2023/04/10 05:02:21;;;;;;;2.13;2.03;;;19.20;44.00;;;;;;5016210;28;20692;-62
2023/04/10 05:04:47;;;;;;;2.60;2.50;;;19.20;44.00;;;;;;5016042;28;20259;-62
2023/04/10 05:07:13;;;;;;;2.53;2.43;;;19.30;44.10;;;;;;5009476;28;20480;-63
2023/04/10 05:09:38;;;;;;;3.27;3.07;;;19.20;43.90;;;;;;5018316;28;20464;-64
2023/04/10 05:12:04;;;;;;;2.53;2.40;;;19.20;44.00;;;;;;5014172;28;20755;-62
2023/04/10 05:14:30;;;;;;;2.30;2.20;;;19.30;44.00;;;;;;5017391;28;20227;-62
2023/04/10 05:16:56;;;;;;;2.27;2.17;;;19.30;44.00;;;;;;5010689;28;20848;-63
2023/04/10 05:19:21;;;;;;;2.60;2.40;;;19.20;43.90;;;;;;5012974;28;20319;-62
2023/04/10 05:21:47;;;;;;;2.90;2.70;;;19.30;44.10;;;;;;5014529;28;20579;-62
2023/04/10 05:24:12;;;;;;;2.30;2.20;;;19.30;44.00;;;;;;5021539;28;20599;-62
2023/04/10 05:26:38;;;;;;;3.20;3.00;;;19.30;44.00;;;;;;5019885;28;20278;-62
2023/04/10 05:29:04;;;;;;;3.07;2.87;;;19.30;44.00;;;;;;5013069;28;20283;-63
2023/04/10 05:31:29;;;;;;;2.53;2.43;;;19.30;43.90;;;;;;5013790;28;20234;-62
2023/04/10 05:33:55;;;;;;;2.80;2.60;;;19.30;44.00;;;;;;5015598;28;21973;-62
2023/04/10 05:36:20;;;;;;;2.37;2.27;;;19.30;43.90;;;;;;5015818;28;20218;-62
2023/04/10 05:38:46;;;;;;;2.67;2.50;;;19.30;44.00;;;;;;5015521;28;20222;-61
2023/04/10 05:41:11;;;;;;;2.77;2.63;;;19.30;44.70;;;;;;5009064;28;20341;-61
2023/04/10 05:43:37;;;;;;;2.70;2.53;;;19.30;43.80;;;;;;5013562;28;20655;-62
2023/04/10 05:46:02;;;;;;;3.20;3.00;;;19.30;43.80;;;;;;5015149;28;20235;-62
2023/04/10 05:48:28;;;;;;;2.87;2.67;;;19.30;43.70;;;;;;5016973;28;20274;-62
2023/04/10 05:50:54;;;;;;;2.90;2.80;;;19.30;43.70;;;;;;5016950;28;20234;-61
2023/04/10 05:53:20;;;;;;;2.67;2.57;;;19.30;43.70;;;;;;5013298;28;20674;-61
2023/04/10 05:55:50;;;;;;;3.20;3.00;;;19.30;43.70;;;;;;5017492;28;20229;-62
2023/04/10 05:58:15;;;;;;;2.63;2.53;;;19.30;43.70;;;;;;5016919;28;20427;-62
2023/04/10 06:00:41;;;;;;;2.57;2.43;;;19.30;44.50;;;;;;5017601;28;20460;-63
2023/04/10 06:03:06;;;;;;;2.80;2.60;;;19.30;43.60;;;;;;5017148;28;20345;-62
2023/04/10 06:05:32;;;;;;;2.90;2.70;;;19.30;43.80;;;;;;5017532;28;20234;-62
2023/04/10 06:07:58;;;;;;;2.63;2.47;;;19.30;43.60;;;;;;5017839;28;20275;-61
2023/04/10 06:10:23;;;;;;;2.70;2.60;;;19.30;43.60;;;;;;5020937;28;20230;-64
2023/04/10 06:12:49;;;;;;;3.20;3.00;;;19.30;43.70;;;;;;5021354;28;20219;-62
2023/04/10 06:15:14;;;;;;;2.80;2.70;;;19.30;43.80;;;;;;5014885;28;20218;-62
2023/04/10 06:17:43;;;;;;;2.80;2.60;;;19.30;43.70;;;;;;5014477;28;20779;-62
2023/04/10 06:20:09;;;;;;;2.50;2.40;;;19.30;43.70;;;;;;5019389;28;20739;-61
2023/04/10 06:22:34;;;;;;;2.90;2.70;;;19.30;43.60;;;;;;5016679;28;20468;-62
2023/04/10 06:25:00;;;;;;;2.70;2.60;;;19.30;43.70;;;;;;5015005;28;20869;-61
2023/04/10 06:27:27;;;;;;;2.87;2.67;;;19.30;43.70;;;;;;5016299;28;20222;-61
2023/04/10 06:29:53;;;;;;;3.20;3.00;;;19.30;43.70;;;;;;5022226;28;20280;-61
2023/04/10 06:32:18;;;;;;;2.37;2.27;;;19.30;43.80;;;;;;5015726;28;20427;-62
2023/04/10 06:34:45;;;;;;;3.00;2.80;;;19.30;43.70;;;;;;5018653;28;20226;-61
2023/04/10 06:37:10;;;;;;;2.97;2.77;;;19.30;43.70;;;;;;5017030;28;20337;-62
2023/04/10 06:39:36;;;;;;;3.00;2.80;;;19.30;43.70;;;;;;5019512;28;20470;-62
2023/04/10 06:42:02;;;;;;;3.17;2.97;;;19.30;44.40;;;;;;5018830;28;20249;-61
2023/04/10 06:44:28;;;;;;;3.00;2.80;;;19.30;43.60;;;;;;5015144;28;20308;-62
2023/04/10 06:46:53;;;;;;;2.90;2.70;;;19.30;43.70;;;;;;5018039;28;20450;-63
2023/04/10 06:49:19;;;;;;;3.03;2.83;;;19.30;43.60;;;;;;5016600;28;20674;-62
2023/04/10 06:51:47;;;;;;;3.43;3.23;;;19.30;43.60;;;;;;5011498;28;20687;-61
2023/04/10 06:54:12;;;;;;;3.47;3.27;;;19.30;43.60;;;;;;5014185;28;20222;-62
2023/04/10 06:56:38;;;;;;;2.87;2.67;;;19.40;43.70;;;;;;5016639;28;20461;-62
2023/04/10 06:59:04;;;;;;;3.30;3.10;;;19.30;43.60;;;;;;5011669;28;21002;-62
2023/04/10 07:01:29;;;;;;;3.13;2.93;;;19.40;43.60;;;;;;5009964;28;20720;-62
2023/04/10 07:03:55;;;;;;;2.70;2.50;;;19.40;43.60;;;;;;5010670;28;20782;-63
2023/04/10 07:06:21;;;;;;;3.23;3.03;;;19.40;43.50;;;;;;5008192;28;20235;-62
2023/04/10 07:08:48;;;;;;;3.90;3.50;;;19.40;43.60;;;;;;5015751;28;20223;-61
2023/04/10 07:11:14;;;;;;;3.33;3.13;;;19.40;43.50;;;;;;5014739;28;20237;-63
2023/04/10 07:13:39;;;;;;;2.97;2.77;;;19.40;43.50;;;;;;5015116;28;20465;-62
2023/04/10 07:16:07;;;;;;;2.70;2.50;;;19.40;43.40;;;;;;5013710;28;20639;-62
2023/04/10 07:18:34;;;;;;;2.70;2.50;;;19.40;43.40;;;;;;5012153;28;20230;-61
2023/04/10 07:21:09;;;;;;;3.20;2.90;;;19.40;43.40;;;;;;5012234;28;20827;-62
2023/04/10 07:23:35;;;;;;;3.27;3.07;;;19.40;43.30;;;;;;5007730;28;20466;-62
2023/04/10 07:26:03;;;;;;;3.27;3.07;;;19.40;43.40;;;;;;5016625;28;20455;-62
2023/04/10 07:28:29;;;;;;;3.67;3.40;;;19.40;43.40;;;;;;5018692;28;20443;-62
2023/04/10 07:30:55;;;;;;;4.17;2.87;;;19.40;43.30;;;;;;5016183;28;20460;-62
2023/04/10 07:33:20;;;;;;;6.77;5.20;;;19.40;43.30;;;;;;5018719;28;20679;-61
2023/04/10 07:35:46;;;;;;;2.93;2.73;;;19.40;43.40;;;;;;5015493;28;20789;-64
2023/04/10 07:38:12;;;;;;;3.50;3.20;;;19.40;43.40;;;;;;5014923;28;20301;-61
2023/04/10 07:40:37;;;;;;;3.70;3.37;;;19.40;43.40;;;;;;5015308;28;20215;-61
2023/04/10 07:43:03;;;;;;;2.90;2.70;;;19.40;43.30;;;;;;5009183;28;20236;-61
2023/04/10 07:45:28;;;;;;;3.30;3.10;;;19.40;43.30;;;;;;5016359;28;20229;-63
2023/04/10 07:47:54;;;;;;;3.23;3.03;;;19.40;43.30;;;;;;5015522;28;20682;-64
2023/04/10 07:50:19;;;;;;;3.00;2.80;;;19.40;43.30;;;;;;5019629;28;20222;-61
2023/04/10 07:52:45;;;;;;;3.20;3.00;;;19.40;43.20;;;;;;5015393;28;20619;-64
2023/04/10 07:55:10;;;;;;;2.90;2.73;;;19.40;43.20;;;;;;5015029;28;20223;-63
2023/04/10 07:57:36;;;;;;;2.83;2.63;;;19.40;43.30;;;;;;5015074;28;20285;-64
2023/04/10 08:00:02;;;;;;;3.37;3.17;;;19.40;43.30;;;;;;5016743;28;20689;-63
2023/04/10 08:02:27;;;;;;;3.00;2.73;;;19.40;43.30;;;;;;5015094;28;20218;-63
2023/04/10 08:04:53;;;;;;;3.13;2.93;;;19.40;43.30;;;;;;5011965;28;20479;-63
2023/04/10 08:07:21;;;;;;;2.63;2.43;;;19.40;43.30;;;;;;5016426;28;20226;-64
2023/04/10 08:09:46;;;;;;;3.30;3.10;;;19.40;43.30;;;;;;5021765;28;20219;-64
2023/04/10 08:12:12;;;;;;;3.17;2.97;;;19.40;43.30;;;;;;5017935;28;20480;-64
2023/04/10 08:14:37;;;;;;;3.47;3.00;;;19.40;43.30;;;;;;5007033;28;20257;-64
2023/04/10 08:17:03;;;;;;;2.67;2.47;;;19.50;43.30;;;;;;5009733;28;20993;-62
2023/04/10 08:19:28;;;;;;;3.37;3.13;;;19.40;43.10;;;;;;5016515;28;20267;-62
2023/04/10 08:21:54;;;;;;;3.83;3.03;;;19.40;43.10;;;;;;5013577;28;20226;-63
2023/04/10 08:24:21;;;;;;;3.03;2.83;;;19.50;43.10;;;;;;5013871;28;20303;-64
2023/04/10 08:26:47;;;;;;;2.73;2.53;;;19.40;43.10;;;;;;5018394;28;20238;-61
2023/04/10 08:29:12;;;;;;;3.10;2.90;;;19.40;43.10;;;;;;5006766;28;20538;-61
2023/04/10 08:31:38;;;;;;;3.57;3.30;;;19.40;43.20;;;;;;5008487;28;20437;-61
2023/04/10 08:34:03;;;;;;;3.00;2.80;;;19.40;43.20;;;;;;5016776;28;20250;-63
2023/04/10 08:36:30;;;;;;;3.00;2.80;;;19.40;43.30;;;;;;5012610;28;20276;-62
2023/04/10 08:38:56;;;;;;;3.30;3.10;;;19.40;43.20;;;;;;5015634;28;20297;-64
2023/04/10 08:41:21;;;;;;;3.10;2.90;;;19.40;43.30;;;;;;5014326;28;20465;-63
2023/04/10 08:43:48;;;;;;;3.03;2.83;;;19.40;43.30;;;;;;5014311;28;20303;-62
2023/04/10 08:46:14;;;;;;;3.07;2.87;;;19.40;43.30;;;;;;5011278;28;20239;-64
2023/04/10 08:48:47;;;;;;;3.33;3.10;;;19.40;43.30;;;;;;5017649;28;21468;-62
2023/04/10 08:51:19;;;;;;;3.03;2.83;;;19.40;43.30;;;;;;5014572;28;20451;-61
2023/04/10 08:53:46;;;;;;;2.97;2.77;;;19.40;43.40;;;;;;5015276;28;20456;-62
2023/04/10 08:56:15;;;;;;;3.60;3.40;;;19.40;43.40;;;;;;5016998;28;21047;-62
2023/04/10 08:58:41;;;;;;;3.07;2.87;;;19.40;43.50;;;;;;5015606;28;20973;-63
2023/04/10 09:01:08;;;;;;;3.23;3.03;;;19.40;43.40;;;;;;5019094;28;20447;-62
2023/04/10 09:03:34;;;;;;;3.30;3.10;;;19.40;43.40;;;;;;5018452;28;20474;-61
2023/04/10 09:06:04;;;;;;;3.33;2.93;;;19.40;43.40;;;;;;5016964;28;20469;-62
2023/04/10 09:08:30;;;;;;;2.80;2.60;;;19.40;43.40;;;;;;5020200;28;20457;-61
2023/04/10 09:10:56;;;;;;;3.67;3.37;;;19.30;43.20;;;;;;5017016;28;20438;-63
2023/04/10 09:13:41;;;;;;;3.00;2.80;;;19.40;43.40;;;;;;5017132;28;20430;-62
2023/04/10 09:16:08;;;;;;;3.00;2.80;;;19.40;43.20;;;;;;5017779;28;20223;-62
2023/04/10 09:18:41;;;;;;;3.77;3.30;;;19.40;43.30;;;;;;5022202;28;20507;-63
2023/04/10 09:21:11;;;;;;;3.73;3.37;;;19.40;43.30;;;;;;5018693;28;20478;-64
2023/04/10 09:23:36;;;;;;;3.30;3.07;;;19.40;43.30;;;;;;5019034;28;21661;-62
2023/04/10 09:26:21;;;;;;;3.00;2.80;;;19.40;43.20;;;;;;5014807;28;21504;-61
2023/04/10 09:29:04;;;;;;;3.07;2.87;;;19.40;43.20;;;;;;5015499;28;20803;-64
2023/04/10 09:31:37;;;;;;;3.93;3.03;;;19.40;43.10;;;;;;5011916;28;20455;-63
2023/04/10 09:34:14;;;;;;;3.73;3.17;;;19.40;43.00;;;;;;5019162;28;20439;-63
2023/04/10 09:36:42;;;;;;;6.33;3.10;;;19.40;43.00;;;;;;5015151;28;21192;-63
2023/04/10 09:39:09;;;;;;;3.23;3.03;;;19.40;42.90;;;;;;5016322;28;20550;-62
2023/04/10 09:41:45;;;;;;;4.03;3.37;;;19.40;42.90;;;;;;5011349;28;20426;-62
2023/04/10 09:44:10;;;;;;;4.67;3.37;;;19.40;42.90;;;;;;5018650;28;20434;-61
2023/04/10 09:46:36;;;;;;;4.63;3.10;;;19.40;42.80;;;;;;5028790;28;20812;-63
2023/04/10 09:49:04;;;;;;;4.80;3.03;;;19.30;42.80;;;;;;5017447;28;20229;-63
2023/04/10 09:51:32;;;;;;;4.00;3.70;;;19.30;42.70;;;;;;5017873;28;20245;-64
2023/04/10 09:53:58;;;;;;;3.60;2.90;;;19.40;42.80;;;;;;5027516;28;20472;-63
2023/04/10 09:56:25;;;;;;;3.30;3.00;;;19.40;43.00;;;;;;5013245;28;20459;-65
2023/04/10 09:58:52;;;;;;;3.00;2.77;;;19.40;42.70;;;;;;5017957;28;20246;-62
2023/04/10 10:01:19;;;;;;;3.47;3.20;;;19.40;42.80;;;;;;5010078;28;20899;-61
2023/04/10 10:03:45;;;;;;;3.30;3.00;;;19.40;42.80;;;;;;5009370;28;20516;-62
2023/04/10 10:06:10;;;;;;;6.80;3.40;;;19.30;42.70;;;;;;5012374;28;20512;-63
2023/04/10 10:08:36;;;;;;;3.30;3.03;;;19.30;42.70;;;;;;5005605;28;20464;-61
2023/04/10 10:11:06;;;;;;;2.97;2.77;;;19.30;42.60;;;;;;5009174;28;20253;-62
2023/04/10 10:13:39;;;;;;;3.13;2.93;;;19.40;42.70;;;;;;5007131;28;20229;-64
2023/04/10 10:16:17;;;;;;;3.20;3.00;;;19.40;42.70;;;;;;5009022;28;20439;-62
2023/04/10 10:18:47;;;;;;;3.03;2.83;;;19.30;42.60;;;;;;5010875;28;20525;-63
2023/04/10 10:21:14;;;;;;;3.30;3.10;;;19.30;42.60;;;;;;5007987;28;21169;-61
2023/04/10 10:23:42;;;;;;;3.30;3.00;;;19.30;42.60;;;;;;5008864;28;20445;-61
2023/04/10 10:26:09;;;;;;;3.10;2.90;;;19.30;42.60;;;;;;5011492;28;20447;-62
2023/04/10 10:28:35;;;;;;;6.77;3.30;;;19.30;42.60;;;;;;5012443;28;20436;-62
2023/04/10 10:31:02;;;;;;;3.07;2.87;;;19.30;42.60;;;;;;5012462;28;20472;-62
2023/04/10 10:33:29;;;;;;;2.80;2.50;;;19.30;42.60;;;;;;5013038;28;20604;-61
2023/04/10 10:35:59;;;;;;;3.00;2.80;;;19.30;42.60;;;;;;5008036;28;20435;-62
2023/04/10 10:38:27;;;;;;;3.20;2.90;;;19.30;42.60;;;;;;5001350;28;20437;-61
2023/04/10 10:41:19;;;;;;;3.10;2.90;;;19.30;42.60;;;;;;5009982;28;20423;-62
2023/04/10 10:43:51;;;;;;;2.90;2.70;;;19.30;42.60;;;;;;5006557;28;20450;-62
2023/04/10 10:46:26;;;;;;;4.37;2.93;;;19.30;42.60;;;;;;5004259;28;20933;-63
2023/04/10 10:48:59;;;;;;;3.03;2.77;;;19.20;42.50;;;;;;5010743;28;20860;-62
2023/04/10 10:51:46;;;;;;;3.33;2.90;;;19.30;42.60;;;;;;5012044;28;20481;-62
2023/04/10 10:54:34;;;;;;;3.10;2.90;;;19.30;42.60;;;;;;5011921;28;20471;-61
2023/04/10 10:57:01;;;;;;;3.77;3.57;;;19.30;42.60;;;;;;5010590;28;20467;-61
2023/04/10 10:59:42;;;;;;;3.90;3.60;;;19.20;42.60;;;;;;5008164;28;20756;-64
2023/04/10 11:02:18;;;;;;;6.70;3.03;;;19.20;42.60;;;;;;5001448;28;20465;-62
2023/04/10 11:04:48;;;;;;;3.37;3.07;;;19.30;42.60;;;;;;5005814;28;20474;-62
2023/04/10 11:07:15;;;;;;;4.63;2.50;;;19.30;43.30;;;;;;5015073;28;20436;-63
2023/04/10 11:09:55;;;;;;;3.73;3.20;;;19.30;42.70;;;;;;5014102;28;20949;-64
2023/04/10 11:12:23;;;;;;;3.83;3.30;;;19.30;42.50;;;;;;5014551;28;20457;-61
2023/04/10 11:15:00;;;;;;;3.50;3.20;;;19.30;42.60;;;;;;5004602;28;20504;-62
2023/04/10 11:17:46;;;;;;;5.90;2.87;;;19.30;42.50;;;;;;5017636;28;20466;-63
2023/04/10 11:20:12;;;;;;;3.93;3.30;;;19.30;42.50;;;;;;5010272;28;20838;-62
2023/04/10 11:23:09;;;;;;;5.67;3.23;;;19.30;42.40;;;;;;5029921;28;20442;-61
2023/04/10 11:25:49;;;;;;;3.33;2.83;;;19.30;42.30;;;;;;5013718;28;20622;-63
2023/04/10 11:28:33;;;;;;;2.93;2.70;;;19.30;42.30;;;;;;5016802;28;20437;-63
2023/04/10 11:31:21;;;;;;;3.17;2.83;;;19.30;42.40;;;;;;5011866;28;20450;-64
2023/04/10 11:33:48;;;;;;;3.43;2.90;;;19.30;42.40;;;;;;5010636;28;20426;-62
2023/04/10 11:36:18;;;;;;;2.97;2.77;;;19.30;42.40;;;;;;5012681;28;21021;-61
2023/04/10 11:38:55;;;;;;;2.90;2.70;;;19.30;42.50;;;;;;5018051;28;20467;-63
2023/04/10 11:41:25;;;;;;;2.97;2.70;;;19.30;42.50;;;;;;5015486;28;20950;-65
2023/04/10 11:43:51;;;;;;;2.97;2.40;;;19.30;42.50;;;;;;5013406;28;20450;-61
2023/04/10 11:46:17;;;;;;;2.70;2.50;;;19.30;42.50;;;;;;5010743;28;20439;-64
2023/04/10 11:48:42;;;;;;;3.00;2.80;;;19.30;42.60;;;;;;5012268;28;20357;-62
2023/04/10 11:51:09;;;;;;;4.13;3.37;;;19.30;42.50;;;;;;5012317;28;20811;-62
2023/04/10 11:53:35;;;;;;;6.33;3.07;;;19.40;42.50;;;;;;5013514;28;20223;-61
2023/04/10 11:56:00;;;;;;;3.00;2.80;;;19.40;42.40;;;;;;5010446;28;20500;-61
2023/04/10 11:58:29;;;;;;;2.83;2.63;;;19.40;42.40;;;;;;5007883;28;20233;-62
2023/04/10 12:01:00;;;;;;;2.37;2.17;;;19.40;42.40;;;;;;5014775;28;20273;-64
2023/04/10 12:03:32;;;;;;;2.80;2.60;;;19.40;42.40;;;;;;5012919;28;20427;-62
2023/04/10 12:05:58;;;;;;;4.03;2.70;;;19.40;42.50;;;;;;5013773;28;20464;-62
2023/04/10 12:08:33;;;;;;;2.40;2.30;;;19.40;42.50;;;;;;5017201;28;20438;-63
2023/04/10 12:10:59;;;;;;;6.23;2.80;;;19.40;42.60;;;;;;5013898;28;20357;-62
2023/04/10 12:13:28;;;;;;;3.50;2.80;;;19.40;43.30;;;;;;5013641;28;20466;-64
2023/04/10 12:15:58;;;;;;;3.20;2.90;;;19.40;42.60;;;;;;5012674;28;20976;-64
2023/04/10 12:18:24;;;;;;;3.00;2.57;;;19.40;42.60;;;;;;5010355;28;20442;-63
2023/04/10 12:20:54;;;;;;;2.80;2.60;;;19.40;42.70;;;;;;5010870;28;20884;-62
2023/04/10 12:23:19;;;;;;;2.93;2.73;;;19.40;42.80;;;;;;5011604;28;20514;-64
2023/04/10 12:25:45;;;;;;;2.57;2.37;;;19.40;42.70;;;;;;5011518;28;20542;-65
2023/04/10 12:28:16;;;;;;;5.60;2.70;;;19.40;42.70;;;;;;5003667;28;20831;-61
2023/04/10 12:30:51;;;;;;;3.40;3.20;;;19.30;42.70;;;;;;5012476;28;20227;-63
2023/04/10 12:33:21;;;;;;;3.17;2.90;;;19.40;42.70;;;;;;5012078;28;20762;-61
2023/04/10 12:35:47;;;;;;;3.07;2.87;;;19.40;42.80;;;;;;5013380;28;20444;-64
2023/04/10 12:38:13;;;;;;;2.90;2.70;;;19.40;42.80;;;;;;5016636;28;20844;-62
2023/04/10 12:40:56;;;;;;;3.50;3.23;;;19.30;42.70;;;;;;5014280;28;20243;-64
2023/04/10 12:43:40;;;;;;;3.47;2.80;;;19.40;42.80;;;;;;5012548;28;20723;-63
2023/04/10 12:46:07;;;;;;;3.10;2.90;;;19.40;42.80;;;;;;5016430;28;21065;-63
2023/04/10 12:48:33;;;;;;;3.77;3.07;;;19.40;43.60;;;;;;5008922;28;20457;-64
2023/04/10 12:51:00;;;;;;;3.17;2.97;;;19.30;42.80;;;;;;5005874;28;21314;-63
2023/04/10 12:53:26;;;;;;;4.33;3.93;;;19.40;42.80;;;;;;5027538;28;20518;-63